| time (UTC) | temp F | wind direction | speed MPH | gust MPH | rain 1hr in | rain 24hr in | rain mn in | humidity % | barometer mb |
| 20260509230521 | 69 | 0.0 | 1.0 | 0.00 | 0.00 | 0.00 | 58 | 1011.3 | |
| 20260509225521 | 69 | 0.0 | 2.0 | 0.00 | 0.00 | 0.00 | 59 | 1011.3 | |
| 20260509224521 | 70 | 23 | 1.0 | 4.0 | 0.00 | 0.00 | 0.00 | 57 | 1011.4 |
| 20260509223521 | 70 | 0.0 | 3.0 | 0.00 | 0.00 | 0.00 | 58 | 1011.5 | |
| 20260509222546 | 71 | 0.0 | 2.0 | 0.00 | 0.00 | 0.00 | 58 | 1011.4 | |
| 20260509221521 | 71 | 0.0 | 2.0 | 0.00 | 0.00 | 0.00 | 57 | 1011.4 | |
| 20260509220521 | 71 | 23 | 2.0 | 5.0 | 0.00 | 0.00 | 0.00 | 56 | 1011.4 |
| 20260509215520 | 72 | 0 | 1.0 | 4.0 | 0.00 | 0.00 | 0.00 | 55 | 1011.1 |
| 20260509214521 | 73 | 0.0 | 1.0 | 0.00 | 0.00 | 0.00 | 54 | 1010.9 | |
| 20260509213521 | 73 | 0 | 1.0 | 3.0 | 0.00 | 0.00 | 0.00 | 52 | 1010.7 |
| 20260509212521 | 74 | 23 | 1.0 | 3.0 | 0.00 | 0.00 | 0.00 | 52 | 1010.6 |
| 20260509211521 | 74 | 0.0 | 1.0 | 0.00 | 0.00 | 0.00 | 54 | 1010.7 | |
| 20260509210546 | 74 | 23 | 2.0 | 6.0 | 0.00 | 0.00 | 0.00 | 52 | 1010.7 |
| 20260509205521 | 74 | 0.0 | 3.0 | 0.00 | 0.00 | 0.00 | 53 | 1010.8 | |
| 20260509204521 | 74 | 23 | 1.0 | 2.0 | 0.00 | 0.00 | 0.00 | 54 | 1010.8 |
| 20260509203520 | 74 | 23 | 1.0 | 3.0 | 0.00 | 0.00 | 0.00 | 53 | 1010.8 |
| 20260509202521 | 74 | 23 | 1.0 | 2.0 | 0.00 | 0.00 | 0.00 | 53 | 1010.7 |
| 20260509201521 | 75 | 23 | 1.0 | 5.0 | 0.00 | 0.00 | 0.00 | 51 | 1010.9 |
| 20260509200521 | 75 | 23 | 1.0 | 4.0 | 0.00 | 0.00 | 0.00 | 51 | 1010.8 |
| 20260509195546 | 75 | 0 | 1.0 | 2.0 | 0.00 | 0.00 | 0.00 | 52 | 1010.7 |
| 20260509194521 | 75 | 23 | 1.0 | 4.0 | 0.00 | 0.00 | 0.00 | 53 | 1010.8 |
| 20260509193520 | 75 | 23 | 1.0 | 4.0 | 0.00 | 0.00 | 0.00 | 50 | 1011.0 |
| 20260509192521 | 76 | 0.0 | 2.0 | 0.00 | 0.00 | 0.00 | 51 | 1011.4 | |
| 20260509191520 | 76 | 0.0 | 2.0 | 0.00 | 0.00 | 0.00 | 54 | 1011.4 | |
| 20260509190520 | 76 | 23 | 1.0 | 3.0 | 0.00 | 0.00 | 0.00 | 47 | 1011.1 |
| 20260509185520 | 77 | 0 | 1.0 | 3.0 | 0.00 | 0.00 | 0.00 | 47 | 1011.2 |
| 20260509184546 | 78 | 0 | 1.0 | 3.0 | 0.00 | 0.00 | 0.00 | 44 | 1011.1 |
| 20260509183521 | 79 | 0.0 | 1.0 | 0.00 | 0.00 | 0.00 | 47 | 1011.4 | |
| 20260509182520 | 79 | 0.0 | 1.0 | 0.00 | 0.00 | 0.00 | 46 | 1011.7 | |
| 20260509181520 | 81 | 23 | 1.0 | 4.0 | 0.00 | 0.00 | 0.00 | 40 | 1011.8 |
| 20260509180520 | 83 | 0.0 | 2.0 | 0.00 | 0.00 | 0.00 | 36 | 1011.8 | |
| 20260509175610 | 83 | 23 | 1.0 | 3.0 | 0.00 | 0.00 | 0.00 | 35 | 1011.9 |
| 20260509174520 | 82 | 0.0 | 1.0 | 0.00 | 0.00 | 0.00 | 39 | 1012.0 | |
| 20260509173520 | 82 | 0.0 | 2.0 | 0.00 | 0.00 | 0.00 | 39 | 1012.0 | |
| 20260509172520 | 80 | 0.0 | 1.0 | 0.00 | 0.00 | 0.00 | 43 | 1012.1 | |
| 20260509171520 | 78 | 0.0 | 1.0 | 0.00 | 0.00 | 0.00 | 46 | 1012.4 | |
| 20260509170545 | 78 | 0.0 | 2.0 | 0.00 | 0.00 | 0.00 | 46 | 1012.6 | |
| 20260509165520 | 77 | 0.0 | 2.0 | 0.00 | 0.00 | 0.00 | 51 | 1012.7 | |
| 20260509164521 | 75 | 0.0 | 2.0 | 0.00 | 0.00 | 0.00 | 54 | 1012.6 | |
| 20260509163520 | 74 | 135 | 1.0 | 2.0 | 0.00 | 0.00 | 0.00 | 53 | 1012.7 |
| 20260509162520 | 73 | 0.0 | 2.0 | 0.00 | 0.00 | 0.00 | 56 | 1012.8 | |
| 20260509161522 | 71 | 0.0 | 1.0 | 0.00 | 0.00 | 0.00 | 58 | 1012.8 | |
| 20260509160522 | 70 | 0.0 | 2.0 | 0.00 | 0.00 | 0.00 | 63 | 1012.9 | |
| 20260509155522 | 68 | 0.0 | 1.0 | 0.00 | 0.00 | 0.00 | 63 | 1012.8 | |
| 20260509154522 | 68 | 23 | 1.0 | 2.0 | 0.00 | 0.00 | 0.00 | 63 | 1012.8 |
| 20260509153522 | 68 | 0.0 | 2.0 | 0.00 | 0.00 | 0.00 | 66 | 1012.8 | |
| 20260509152522 | 67 | 0.0 | 2.0 | 0.00 | 0.00 | 0.00 | 66 | 1012.9 | |
| 20260509151522 | 65 | 0.0 | 2.0 | 0.00 | 0.00 | 0.00 | 68 | 1012.8 | |
| 20260509150522 | 64 | 0.0 | 1.0 | 0.00 | 0.00 | 0.00 | 72 | 1012.9 | |
| 20260509145522 | 63 | 0.0 | 0.0 | 0.00 | 0.00 | 0.00 | 75 | 1012.7 | |
| 20260509144522 | 62 | 0.0 | 1.0 | 0.00 | 0.00 | 0.00 | 75 | 1012.6 | |
| 20260509143612 | 61 | 0.0 | 0.0 | 0.00 | 0.00 | 0.00 | 80 | 1012.8 | |
| 20260509142522 | 60 | 0.0 | 1.0 | 0.00 | 0.00 | 0.00 | 81 | 1012.5 | |
| 20260509141522 | 58 | 0.0 | 1.0 | 0.00 | 0.00 | 0.00 | 84 | 1012.5 | |
| 20260509140547 | 57 | 0.0 | 1.0 | 0.00 | 0.00 | 0.00 | 88 | 1012.6 | |
| 20260509135522 | 56 | 0.0 | 1.0 | 0.00 | 0.00 | 0.00 | 90 | 1012.7 | |
| 20260509134522 | 55 | 0.0 | 1.0 | 0.00 | 0.00 | 0.00 | 90 | 1013.0 | |
| 20260509133522 | 54 | 0.0 | 0.0 | 0.00 | 0.00 | 0.00 | 88 | 1012.9 | |
| 20260509132522 | 53 | 0.0 | 1.0 | 0.00 | 0.00 | 0.00 | 86 | 1012.9 | |
| 20260509131522 | 52 | 0.0 | 1.0 | 0.00 | 0.00 | 0.00 | 84 | 1012.6 | |
| 20260509130522 | 51 | 0.0 | 0.0 | 0.00 | 0.00 | 0.00 | 82 | 1012.5 | |
| 20260509125522 | 51 | 0.0 | 1.0 | 0.00 | 0.00 | 0.00 | 80 | 1012.7 | |
| 20260509124522 | 50 | 0.0 | 1.0 | 0.00 | 0.00 | 0.00 | 80 | 1012.8 | |
| 20260509123522 | 49 | 0.0 | 1.0 | 0.00 | 0.00 | 0.00 | 81 | 1012.6 | |
| 20260509122522 | 49 | 0.0 | 0.0 | 0.00 | 0.00 | 0.00 | 81 | 1012.6 | |
| 20260509121522 | 48 | 0.0 | 0.0 | 0.00 | 0.00 | 0.00 | 82 | 1012.8 | |
| 20260509120522 | 48 | 0.0 | 0.0 | 0.00 | 0.00 | 0.00 | 82 | 1013.1 | |
| 20260509115522 | 48 | 0.0 | 0.0 | 0.00 | 0.00 | 0.00 | 83 | 1013.1 | |
| 20260509114522 | 47 | 0.0 | 0.0 | 0.00 | 0.00 | 0.00 | 83 | 1013.3 | |
| 20260509113547 | 47 | 0.0 | 0.0 | 0.00 | 0.00 | 0.00 | 83 | 1013.2 | |
| 20260509112522 | 47 | 0.0 | 1.0 | 0.00 | 0.00 | 0.00 | 83 | 1013.1 | |
| 20260509111522 | 47 | 0.0 | 0.0 | 0.00 | 0.00 | 0.00 | 84 | 1013.0 | |
| 20260509110522 | 46 | 0.0 | 0.0 | 0.00 | 0.00 | 0.00 | 85 | 1013.0 | |
| 20260509105521 | 46 | 0.0 | 0.0 | 0.00 | 0.00 | 0.00 | 86 | 1013.1 | |
| 20260509104522 | 46 | 0.0 | 0.0 | 0.00 | 0.00 | 0.00 | 86 | 1012.9 | |
| 20260509103702 | 46 | 0.0 | 0.0 | 0.00 | 0.00 | 0.00 | 87 | 1012.8 | |
| 20260509102522 | 46 | 0.0 | 0.0 | 0.00 | 0.00 | 0.00 | 87 | 1012.6 | |
| 20260509101547 | 47 | 0.0 | 1.0 | 0.00 | 0.00 | 0.00 | 87 | 1013.0 | |
| 20260509100522 | 47 | 0.0 | 0.0 | 0.00 | 0.00 | 0.00 | 86 | 1013.0 | |
| 20260509095612 | 47 | 0.0 | 0.0 | 0.00 | 0.00 | 0.00 | 86 | 1012.9 | |
| 20260509094522 | 47 | 0.0 | 0.0 | 0.00 | 0.00 | 0.00 | 86 | 1013.2 | |
| 20260509093522 | 46 | 0.0 | 0.0 | 0.00 | 0.00 | 0.00 | 87 | 1012.6 | |
| 20260509092612 | 46 | 0.0 | 0.0 | 0.00 | 0.00 | 0.00 | 88 | 1012.4 | |
| 20260509091522 | 46 | 0.0 | 0.0 | 0.00 | 0.00 | 0.00 | 88 | 1012.5 | |
| 20260509090522 | 47 | 0.0 | 0.0 | 0.00 | 0.00 | 0.00 | 88 | 1012.7 | |
| 20260509085522 | 47 | 0.0 | 0.0 | 0.00 | 0.00 | 0.00 | 88 | 1012.7 | |
| 20260509084522 | 47 | 0.0 | 0.0 | 0.00 | 0.00 | 0.00 | 87 | 1012.8 | |
| 20260509083521 | 47 | 0.0 | 0.0 | 0.00 | 0.00 | 0.00 | 88 | 1012.5 | |
| 20260509082521 | 47 | 0.0 | 0.0 | 0.00 | 0.00 | 0.00 | 88 | 1012.6 | |
| 20260509081521 | 47 | 0.0 | 0.0 | 0.00 | 0.00 | 0.00 | 89 | 1012.9 | |
| 20260509080521 | 47 | 0.0 | 0.0 | 0.00 | 0.00 | 0.00 | 89 | 1013.0 | |
| 20260509075521 | 47 | 0.0 | 0.0 | 0.00 | 0.00 | 0.00 | 89 | 1013.1 | |
| 20260509074521 | 47 | 0.0 | 0.0 | 0.00 | 0.00 | 0.00 | 89 | 1013.1 | |
| 20260509073521 | 48 | 0.0 | 0.0 | 0.00 | 0.00 | 0.00 | 89 | 1012.9 | |
| 20260509072521 | 48 | 0.0 | 0.0 | 0.00 | 0.00 | 0.00 | 89 | 1012.9 | |
| 20260509071521 | 48 | 0.0 | 0.0 | 0.00 | 0.00 | 0.00 | 90 | 1013.2 | |
| 20260509070521 | 48 | 0.0 | 0.0 | 0.00 | 0.00 | 0.00 | 90 | 1013.2 | |
| 20260509065521 | 48 | 0.0 | 0.0 | 0.00 | 0.00 | 0.00 | 90 | 1013.5 | |
| 20260509064521 | 49 | 0.0 | 0.0 | 0.00 | 0.00 | 0.00 | 90 | 1013.8 | |
| 20260509063546 | 49 | 0.0 | 0.0 | 0.00 | 0.00 | 0.00 | 90 | 1013.9 | |
| 20260509062546 | 49 | 0.0 | 0.0 | 0.00 | 0.00 | 0.00 | 90 | 1013.9 | |
| 20260509061521 | 50 | 0.0 | 0.0 | 0.00 | 0.00 | 0.00 | 90 | 1014.1 | |
| 20260509060546 | 50 | 0.0 | 0.0 | 0.00 | 0.00 | 0.00 | 90 | 1014.4 | |
| 20260509055521 | 50 | 0.0 | 0.0 | 0.00 | 0.00 | 0.00 | 90 | 1014.2 | |
| 20260509054521 | 50 | 0.0 | 0.0 | 0.00 | 0.00 | 0.00 | 90 | 1014.7 | |
| 20260509053521 | 50 | 0.0 | 0.0 | 0.00 | 0.00 | 0.00 | 89 | 1014.7 | |
| 20260509052521 | 51 | 0.0 | 0.0 | 0.00 | 0.00 | 0.00 | 89 | 1014.8 | |
| 20260509051521 | 51 | 0.0 | 0.0 | 0.00 | 0.00 | 0.00 | 89 | 1014.9 | |
| 20260509050521 | 51 | 0.0 | 0.0 | 0.00 | 0.00 | 0.00 | 89 | 1015.1 | |
| 20260509045521 | 52 | 0.0 | 0.0 | 0.00 | 0.00 | 0.00 | 89 | 1015.1 | |
| 20260509044521 | 52 | 0.0 | 0.0 | 0.00 | 0.00 | 0.00 | 88 | 1015.0 | |
| 20260509043521 | 52 | 0.0 | 0.0 | 0.00 | 0.00 | 0.00 | 88 | 1015.2 | |
| 20260509042521 | 52 | 0.0 | 0.0 | 0.00 | 0.00 | 0.00 | 88 | 1015.1 | |
| 20260509041521 | 53 | 0.0 | 0.0 | 0.00 | 0.00 | 0.00 | 87 | 1014.9 | |
| 20260509040521 | 53 | 0.0 | 0.0 | 0.00 | 0.00 | 0.00 | 87 | 1015.1 | |
| 20260509035522 | 53 | 0.0 | 0.0 | 0.00 | 0.00 | 0.00 | 86 | 1015.0 | |
| 20260509034521 | 53 | 0.0 | 0.0 | 0.00 | 0.00 | 0.00 | 86 | 1015.3 | |
| 20260509033521 | 54 | 0.0 | 0.0 | 0.00 | 0.00 | 0.00 | 85 | 1015.4 | |
| 20260509032521 | 54 | 0.0 | 0.0 | 0.00 | 0.00 | 0.00 | 84 | 1015.3 | |
| 20260509031521 | 55 | 0.0 | 0.0 | 0.00 | 0.00 | 0.00 | 83 | 1015.1 | |
| 20260509030521 | 55 | 0.0 | 0.0 | 0.00 | 0.00 | 0.00 | 82 | 1015.3 | |
| 20260509025521 | 55 | 0.0 | 0.0 | 0.00 | 0.00 | 0.00 | 81 | 1015.0 | |
| 20260509024521 | 56 | 0.0 | 0.0 | 0.00 | 0.00 | 0.00 | 80 | 1015.0 | |
| 20260509023521 | 56 | 0.0 | 0.0 | 0.00 | 0.00 | 0.00 | 80 | 1014.9 | |
| 20260509022521 | 57 | 0.0 | 0.0 | 0.00 | 0.00 | 0.00 | 79 | 1014.9 | |
| 20260509021521 | 57 | 0.0 | 0.0 | 0.00 | 0.00 | 0.00 | 77 | 1014.6 | |
| 20260509020521 | 57 | 0.0 | 0.0 | 0.00 | 0.00 | 0.00 | 77 | 1014.9 | |
| 20260509015546 | 58 | 0.0 | 0.0 | 0.00 | 0.00 | 0.00 | 75 | 1014.9 | |
| 20260509014521 | 58 | 0.0 | 0.0 | 0.00 | 0.00 | 0.00 | 75 | 1014.5 | |
| 20260509013521 | 58 | 0.0 | 1.0 | 0.00 | 0.00 | 0.00 | 74 | 1014.5 | |
| 20260509012521 | 59 | 0.0 | 1.0 | 0.00 | 0.00 | 0.00 | 74 | 1014.3 | |
| 20260509011521 | 59 | 0.0 | 0.0 | 0.00 | 0.00 | 0.00 | 73 | 1014.1 | |
| 20260509010521 | 59 | 0.0 | 0.0 | 0.00 | 0.00 | 0.00 | 73 | 1014.2 | |
| 20260509005521 | 59 | 0.0 | 1.0 | 0.00 | 0.00 | 0.00 | 72 | 1014.1 | |
| 20260509004521 | 59 | 0.0 | 1.0 | 0.00 | 0.00 | 0.00 | 71 | 1013.9 | |
| 20260509003521 | 60 | 0.0 | 1.0 | 0.00 | 0.00 | 0.00 | 71 | 1013.8 | |
| 20260509002521 | 60 | 113 | 1.0 | 2.0 | 0.00 | 0.00 | 0.00 | 70 | 1013.8 |
| 20260509001521 | 60 | 135 | 1.0 | 2.0 | 0.00 | 0.00 | 0.00 | 69 | 1013.7 |
| 20260509000521 | 61 | 135 | 1.0 | 2.0 | 0.00 | 0.00 | 0.00 | 69 | 1013.7 |
| 20260508235521 | 61 | 203 | 1.0 | 3.0 | 0.00 | 0.00 | 0.00 | 69 | 1013.7 |
| 20260508234546 | 61 | 135 | 1.0 | 4.0 | 0.00 | 0.00 | 0.00 | 68 | 1013.7 |
| 20260508233546 | 62 | 135 | 1.0 | 3.0 | 0.00 | 0.00 | 0.00 | 67 | 1013.8 |
| 20260508232521 | 62 | 135 | 1.0 | 2.0 | 0.00 | 0.00 | 0.00 | 66 | 1013.8 |
| 20260508231521 | 62 | 135 | 2.0 | 3.0 | 0.00 | 0.00 | 0.00 | 64 | 1013.6 |